Latest Weather Observations for Devonport Airport

IDT60801

Issued at 3:32 pm EDT Monday 27 February 2017 (issued every 30 minutes, with the page automatically refreshed every 10 minutes)

About weather observations | Map of weather stations | Latest weather observations for TAS | Other Formats
Station Details ID: 091126 Name: DEVONPORT AIRPORT Lat: -41.17 Lon: 146.43 Height: 8.0 m
Data from the previous 72 hours. | See also: Recent months at Devonport Airport
Date/Time
EDT
Temp
°C
App
Temp
°C
Dew
Point
°C
Rel
Hum
%
Delta-T
°C
Wind Press
QNH
hPa
Press
MSL
hPa
Rain since
9am
mm
Dir  Spd
km/h
Gust
km/h
Spd
kts
Gust
kts
27/03:30pm 21.1 18.7 15.4 70 3.4 NE 22 28 12 15 1026.1 1026.0 0.0
27/03:00pm 21.0 18.5 15.1 69 3.5 NE 22 26 12 14 1026.4 1026.3 0.0
27/02:30pm 21.2 18.8 15.3 69 3.5 NE 22 28 12 15 1026.6 1026.5 0.0
27/02:00pm 21.9 19.0 15.0 65 4.1 NE 24 30 13 16 1026.5 1026.4 0.0
27/01:30pm 21.4 18.4 14.8 66 3.9 NE 24 30 13 16 1026.5 1026.4 0.0
27/01:00pm 22.2 19.8 15.3 65 4.1 NE 22 28 12 15 1026.7 1026.6 0.0
27/12:30pm 21.5 18.7 13.2 59 4.8 NE 20 26 11 14 1027.1 1027.0 0.0
27/12:00pm 22.1 19.5 13.7 59 4.8 NE 20 28 11 15 1027.2 1027.1 0.0
27/11:30am 21.8 19.6 13.2 58 4.9 NE 17 20 9 11 1027.5 1027.4 0.0
27/11:00am 20.4 19.0 12.1 59 4.6 E 11 20 6 11 1027.6 1027.5 0.0
27/10:30am 19.7 17.0 11.7 60 4.4 E 17 24 9 13 1027.8 1027.7 0.0
27/10:00am 19.1 16.8 11.7 62 4.1 SE 15 20 8 11 1027.7 1027.6 0.0
27/09:30am 17.3 15.1 12.0 71 2.9 S 15 17 8 9 1027.7 1027.6 0.0
27/09:00am 16.1 14.2 11.7 75 2.4 S 13 17 7 9 1027.6 1027.5 0.0
27/08:30am 13.9 10.5 10.5 80 1.8 S 19 20 10 11 1027.4 1027.3 0.0
27/08:00am 13.0 10.3 10.4 84 1.3 SSE 15 19 8 10 1027.2 1027.1 0.0
27/07:30am 11.4 7.7 9.5 88 1.0 S 19 20 10 11 1027.2 1027.1 0.0
27/07:00am 10.3 5.4 8.6 89 0.8 SSE 24 28 13 15 1026.9 1026.8 0.0
27/06:30am 10.1 6.0 8.5 90 0.8 SSE 20 24 11 13 1026.7 1026.6 0.0
27/06:00am 10.3 6.2 8.7 90 0.8 SSE 20 24 11 13 1026.7 1026.6 0.0
27/05:30am 10.6 6.6 8.9 89 0.8 SSE 20 24 11 13 1026.4 1026.3 0.0
27/05:00am 10.4 6.5 8.7 89 0.8 SSE 19 20 10 11 1026.3 1026.2 0.0
27/04:30am 10.4 6.5 8.7 89 0.8 SSE 19 24 10 13 1026.3 1026.2 0.0
27/04:00am 10.6 6.6 8.9 89 0.8 SSE 20 22 11 12 1026.6 1026.5 0.0
27/03:30am 10.4 6.9 8.7 89 0.8 SSE 17 20 9 11 1026.7 1026.6 0.0
27/03:00am 11.0 7.6 9.1 88 0.9 SSE 17 20 9 11 1026.7 1026.6 0.0
27/02:30am 11.4 8.0 9.3 87 1.1 S 17 20 9 11 1026.8 1026.7 0.0
27/02:00am 11.2 7.4 9.1 87 1.0 SSE 19 20 10 11 1026.8 1026.7 0.0
27/01:30am 11.8 8.5 9.4 85 1.2 S 17 20 9 11 1026.9 1026.8 0.0
27/01:00am 11.8 8.5 9.7 87 1.1 SSE 17 19 9 10 1027.0 1026.9 0.0
27/12:30am 12.2 9.8 10.1 87 1.1 SSE 13 17 7 9 1027.1 1027.0 0.0
27/12:00am 12.3 10.2 9.9 85 1.2 SE 11 13 6 7 1027.0 1026.9 0.0
 
Date/Time
EDT
Temp
°C
App
Temp
°C
Dew
Point
°C
Rel
Hum
%
Delta-T
°C
Wind Press
QNH
hPa
Press
MSL
hPa
Rain since
9am
mm
Dir  Spd
km/h
Gust
km/h
Spd
kts
Gust
kts
26/11:30pm 12.3 10.6 10.0 86 1.2 ESE 9 11 5 6 1027.1 1027.0 0.0
26/11:00pm 12.4 10.7 9.8 84 1.3 ESE 9 11 5 6 1027.2 1027.1 0.0
26/10:30pm 13.0 11.5 10.5 85 1.3 SE 9 11 5 6 1027.3 1027.2 0.0
26/10:00pm 13.4 11.9 10.4 82 1.5 SE 9 11 5 6 1027.2 1027.1 0.0
26/09:30pm 13.6 12.4 10.4 81 1.7 SE 7 9 4 5 1027.2 1027.1 0.0
26/09:00pm 15.2 14.1 10.8 75 2.3 E 7 9 4 5 1026.8 1026.7 0.0
26/08:30pm 15.3 14.2 10.7 74 2.4 SE 7 9 4 5 1026.4 1026.3 0.0
26/08:00pm 15.7 14.2 10.5 71 2.7 NE 9 11 5 6 1026.1 1026.0 0.0
26/07:30pm 17.1 15.6 10.7 66 3.4 NE 9 13 5 7 1025.9 1025.8 0.0
26/07:00pm 18.0 15.8 10.9 63 3.8 NNE 13 15 7 8 1025.9 1025.8 0.0
26/06:30pm 18.4 16.1 10.5 60 4.2 NNE 13 17 7 9 1025.8 1025.7 0.0
26/06:00pm 18.2 15.6 10.6 61 4.1 NNE 15 17 8 9 1025.8 1025.7 0.0
26/05:30pm 18.3 15.3 9.1 55 4.8 NNE 15 19 8 10 1025.6 1025.5 0.0
26/05:00pm 18.9 15.7 8.6 51 5.3 NNE 15 20 8 11 1025.6 1025.5 0.0
26/04:30pm 19.4 16.9 11.2 59 4.5 NNE 15 20 8 11 1025.8 1025.7 0.0
26/04:00pm 18.6 15.4 9.9 57 4.6 NNE 17 22 9 12 1026.1 1026.0 0.0
26/03:30pm 18.8 15.1 10.1 57 4.6 NNE 20 24 11 13 1026.3 1026.2 0.0
26/03:00pm 19.3 15.9 11.1 59 4.4 NNE 20 26 11 14 1026.5 1026.4 0.0
26/02:30pm 18.5 15.2 10.8 61 4.2 NNE 19 24 10 13 1026.9 1026.8 0.0
26/02:00pm 18.6 15.4 11.4 63 3.9 N 19 22 10 12 1027.0 1026.9 0.0
26/01:30pm 18.1 14.7 10.7 62 4.0 N 19 24 10 13 1027.1 1027.0 0.0
26/01:00pm 19.2 16.5 11.7 62 4.1 N 17 20 9 11 1027.2 1027.1 0.0
26/12:30pm 18.7 15.9 11.5 63 3.9 N 17 22 9 12 1027.5 1027.4 0.0
26/12:00pm 18.5 15.2 10.8 61 4.1 NNE 19 26 10 14 1027.6 1027.5 0.0
26/11:30am 18.4 14.9 10.8 61 4.1 NE 20 26 11 14 1027.7 1027.6 0.0
26/11:00am 18.3 14.9 11.1 63 3.9 NNE 20 24 11 13 1027.9 1027.8 0.0
26/10:30am 17.5 14.5 10.6 64 3.7 NE 17 20 9 11 1027.9 1027.8 0.0
26/10:00am 17.0 14.9 9.9 63 3.7 NE 11 19 6 10 1027.8 1027.7 0.0
26/09:30am 16.8 15.7 10.6 67 3.3 ENE 7 11 4 6 1027.7 1027.6 0.0
26/09:00am 16.3 15.1 10.4 68 3.1 ESE 7 13 4 7 1027.4 1027.3 0.0
26/08:30am 16.0 14.5 10.5 70 2.9 SE 9 15 5 8 1027.3 1027.2 0.0
26/08:00am 15.2 13.8 10.8 75 2.3 SSE 9 11 5 6 1027.0 1026.9 0.0
26/07:30am 14.6 13.4 10.4 76 2.2 SSE 7 11 4 6 1026.9 1026.8 0.0
26/07:00am 14.5 12.9 10.3 76 2.2 SSE 9 11 5 6 1026.7 1026.6 0.0
26/06:30am 14.3 13.1 10.3 77 2.1 SSE 7 9 4 5 1026.3 1026.2 0.0
26/06:00am 14.4 12.9 10.4 77 2.1 S 9 13 5 7 1026.2 1026.1 0.0
26/05:30am 14.6 13.4 10.2 75 2.3 SE 7 9 4 5 1025.6 1025.5 0.0
26/05:00am 14.8 13.6 10.2 74 2.4 SSE 7 11 4 6 1025.9 1025.8 0.0
26/04:30am 14.9 12.6 10.5 75 2.3 ENE 13 15 7 8 1025.8 1025.7 0.0
26/04:00am 14.9 11.8 10.3 74 2.4 ENE 17 20 9 11 1025.6 1025.5 0.0
26/03:30am 15.0 12.3 10.4 74 2.4 ENE 15 20 8 11 1026.2 1026.1 0.0
26/03:00am 14.9 11.8 10.3 74 2.4 ENE 17 20 9 11 1026.2 1026.1 0.0
26/02:30am 14.9 11.8 10.3 74 2.4 ENE 17 22 9 12 1026.3 1026.2 0.0
26/02:00am 15.0 11.4 10.4 74 2.4 ENE 20 28 11 15 1026.6 1026.5 0.0
26/01:30am 15.1 11.7 10.7 75 2.3 ENE 19 24 10 13 1027.0 1026.9 0.0
26/01:00am 15.2 11.6 10.6 74 2.4 ENE 20 26 11 14 1027.2 1027.1 0.0
26/12:30am 15.7 11.8 10.9 73 2.6 NE 22 30 12 16 1027.1 1027.0 0.0
26/12:00am 16.2 11.5 10.7 70 2.9 NE 26 35 14 19 1027.1 1027.0 0.0
 
Date/Time
EDT
Temp
°C
App
Temp
°C
Dew
Point
°C
Rel
Hum
%
Delta-T
°C
Wind Press
QNH
hPa
Press
MSL
hPa
Rain since
9am
mm
Dir  Spd
km/h
Gust
km/h
Spd
kts
Gust
kts
25/11:30pm 16.3 11.7 11.2 72 2.7 NE 26 30 14 16 1027.0 1026.9 0.0
25/11:00pm 16.3 12.1 11.0 71 2.8 NE 24 30 13 16 1027.0 1026.9 0.0
25/10:30pm 16.3 12.5 11.2 72 2.7 NNE 22 28 12 15 1026.9 1026.8 0.0
25/10:00pm 16.4 12.7 11.6 73 2.6 NNE 22 28 12 15 1027.0 1026.9 0.0
25/09:30pm 16.5 13.1 11.4 72 2.8 NNE 20 26 11 14 1026.8 1026.7 0.0
25/09:00pm 16.4 13.2 11.8 74 2.5 NNE 20 24 11 13 1026.6 1026.5 0.0
25/08:30pm 16.5 13.9 12.1 75 2.4 NNE 17 20 9 11 1026.5 1026.4 0.0
25/08:00pm 16.2 13.5 11.6 74 2.5 N 17 20 9 11 1026.3 1026.2 0.0
25/07:30pm 16.6 13.8 11.5 72 2.8 NNE 17 20 9 11 1026.0 1025.9 0.0
25/07:00pm 17.1 14.6 10.9 67 3.3 NNE 15 19 8 10 1025.8 1025.7 0.0
25/06:30pm 17.7 14.8 11.0 65 3.6 N 17 19 9 10 1025.7 1025.6 0.0
25/06:00pm 17.5 14.2 10.9 65 3.5 N 19 20 10 11 1025.4 1025.3 0.0
25/05:30pm 18.2 14.7 10.3 60 4.2 NNW 19 22 10 12 1025.5 1025.4 0.0
25/05:00pm 17.7 13.9 9.1 57 4.4 N 19 22 10 12 1025.7 1025.6 0.0
25/04:30pm 17.6 13.5 10.0 61 4.0 NNW 22 28 12 15 1025.6 1025.5 0.0
25/04:00pm 18.5 14.3 9.6 56 4.7 NNW 22 26 12 14 1025.5 1025.4 0.0
25/03:30pm 18.4 14.2 9.7 57 4.6 NNW 22 26 12 14 1025.5 1025.4 0.0
25/03:00pm 18.4 14.0 7.2 48 5.6 NNW 20 26 11 14 1025.7 1025.6 0.0
25/02:30pm 18.9 15.0 8.8 52 5.3 NNW 19 22 10 12 1026.2 1026.1 0.0
25/02:00pm 17.9 14.0 7.0 49 5.4 NNW 17 20 9 11 1026.3 1026.2 0.0
25/01:30pm 18.8 15.1 7.9 49 5.6 NNW 17 19 9 10 1026.5 1026.4 0.0
25/01:00pm 17.8 14.9 8.1 53 4.9 N 13 17 7 9 1026.4 1026.3 0.0
25/12:30pm 17.6 14.0 6.8 49 5.4 N 15 19 8 10 1026.5 1026.4 0.0
25/12:00pm 18.2 16.1 6.7 47 5.7 SE 7 13 4 7 1026.6 1026.5 0.0
25/11:30am 18.7 15.5 6.9 46 5.9 SSE 13 19 7 10 1026.7 1026.6 0.0
25/11:00am 17.7 13.2 6.3 47 5.6 SE 19 24 10 13 1026.9 1026.8 0.0
25/10:30am 16.1 10.9 5.7 50 5.0 SSE 22 28 12 15 1026.9 1026.8 0.0
25/10:00am 15.2 10.0 5.4 52 4.6 SSE 22 30 12 16 1026.8 1026.7 0.0
25/09:30am 15.0 9.4 5.5 53 4.5 SSE 24 30 13 16 1026.6 1026.5 0.0
25/09:00am 14.2 8.2 5.3 55 4.2 SSE 26 32 14 17 1026.5 1026.4 0.0
25/08:30am 13.9 8.4 5.8 58 3.8 SSE 24 32 13 17 1026.5 1026.4 0.0
25/08:00am 13.6 8.0 5.5 58 3.8 SSE 24 32 13 17 1026.2 1026.1 0.0
25/07:30am 13.4 8.3 5.8 60 3.6 SSE 22 28 12 15 1025.6 1025.5 0.0
25/07:00am 13.3 7.9 6.2 62 3.4 SSE 24 30 13 16 1025.4 1025.3 0.0
25/06:30am 13.3 8.3 6.6 64 3.2 SSE 22 28 12 15 1025.2 1025.1 0.0
25/06:00am 13.4 8.1 7.0 65 3.1 SSE 24 28 13 15 1024.7 1024.6 0.0
25/05:30am 13.6 8.7 6.9 64 3.2 SSE 22 28 12 15 1024.5 1024.4 0.0
25/05:00am 13.6 8.7 6.9 64 3.2 SSE 22 26 12 14 1024.3 1024.2 0.0
25/04:30am 13.6 8.4 7.2 65 3.1 SSE 24 32 13 17 1024.3 1024.2 0.0
25/04:00am 13.6 9.3 7.2 65 3.1 S 19 24 10 13 1024.3 1024.2 0.0
25/03:30am 13.7 9.5 7.5 66 3.0 SSE 19 22 10 12 1024.2 1024.1 0.0
25/03:00am 13.6 9.8 7.4 66 3.0 SSE 17 20 9 11 1024.1 1024.0 0.0
25/02:30am 13.7 9.5 7.5 66 3.0 S 19 24 10 13 1024.2 1024.1 0.0
25/02:00am 13.6 10.2 7.8 68 2.8 S 15 19 8 10 1024.3 1024.2 0.0
25/01:30am 13.1 10.6 8.0 71 2.5 S 11 13 6 7 1024.3 1024.2 0.0
25/01:00am 12.7 9.3 7.6 71 2.5 SSE 15 17 8 9 1024.0 1023.9 0.0
25/12:30am 13.0 9.5 7.2 68 2.8 SSE 15 17 8 9 1023.8 1023.7 0.0
25/12:00am 12.2 9.0 6.9 70 2.5 SSE 13 19 7 10 1023.7 1023.6 0.0
 
Date/Time
EDT
Temp
°C
App
Temp
°C
Dew
Point
°C
Rel
Hum
%
Delta-T
°C
Wind Press
QNH
hPa
Press
MSL
hPa
Rain since
9am
mm
Dir  Spd
km/h
Gust
km/h
Spd
kts
Gust
kts
24/11:30pm 12.7 9.2 7.4 70 2.6 SSE 15 17 8 9 1023.7 1023.6 0.0
24/11:00pm 12.2 9.5 7.3 72 2.4 S 11 15 6 8 1023.5 1023.4 0.0
24/10:30pm 11.9 9.1 6.8 71 2.4 SE 11 11 6 6 1023.4 1023.3 0.0
24/10:00pm 15.1 13.1 6.9 58 4.0 S 7 9 4 5 1023.1 1023.0 0.0
24/09:30pm 16.0 14.1 7.5 57 4.2 SSW 7 13 4 7 1022.9 1022.8 0.0
24/09:00pm 16.6 13.5 7.3 54 4.6 SSW 13 22 7 12 1022.4 1022.3 0.0
24/08:30pm 17.0 12.9 7.9 55 4.6 SSW 19 28 10 15 1022.0 1021.9 0.0
24/08:00pm 17.2 13.2 8.4 56 4.5 SW 19 26 10 14 1021.7 1021.6 0.0
24/07:30pm 18.1 13.5 8.1 52 5.1 WSW 22 33 12 18 1021.4 1021.3 0.0
24/07:00pm 20.1 14.7 7.8 45 6.3 SW 26 35 14 19 1021.0 1020.9 0.0
24/06:30pm 20.6 14.0 7.6 43 6.7 WSW 32 39 17 21 1020.8 1020.7 0.0
24/06:00pm 21.2 14.4 6.7 39 7.3 SW 32 43 17 23 1020.5 1020.4 0.0
24/05:30pm 21.5 14.7 7.0 39 7.4 WSW 32 43 17 23 1020.2 1020.1 0.0
24/05:00pm 21.7 15.6 6.4 37 7.7 SW 28 39 15 21 1020.1 1020.0 0.0
24/04:30pm 22.5 16.5 7.1 37 7.9 WSW 28 41 15 22 1019.9 1019.8 0.0
24/04:00pm 22.2 16.0 6.0 35 8.2 WSW 28 39 15 21 1019.9 1019.8 0.0

Other Formats:

Comma delimited format used in spreadsheet applications
http://www.bom.gov.au/fwo/IDT60801/IDT60801.95960.axf

JavaScript Object Notation format (JSON) in row-major order
http://www.bom.gov.au/fwo/IDT60801/IDT60801.95960.json